createdAt,value
2022-12-01T00:01:40.385Z,102328.78
2022-12-01T00:04:09.065Z,102330.05
2022-12-01T00:06:37.751Z,102330.02
2022-12-01T00:09:24.836Z,102326.98
2022-12-01T00:11:53.447Z,102338.81
2022-12-01T00:14:22.076Z,102343.75
2022-12-01T00:16:50.691Z,102343.61
2022-12-01T00:19:19.423Z,102340.01
2022-12-01T00:21:47.993Z,102341.08
2022-12-01T00:24:16.667Z,102342.13
2022-12-01T00:26:45.349Z,102343.85
2022-12-01T00:29:13.968Z,102341.20
2022-12-01T00:31:42.825Z,102338.94
2022-12-01T00:34:24.810Z,102339.66
2022-12-01T00:36:53.435Z,102337.78
2022-12-01T00:39:22.532Z,102335.23
2022-12-01T00:41:51.097Z,102329.72
2022-12-01T00:44:19.804Z,102320.83
2022-12-01T00:46:48.340Z,102326.98
2022-12-01T00:49:17.217Z,102325.41
2022-12-01T00:51:45.915Z,102326.80
2022-12-01T00:54:14.533Z,102326.23
2022-12-01T00:56:43.408Z,102316.04
2022-12-01T00:59:12.106Z,102314.41
2022-12-01T01:01:41.181Z,102311.91
2022-12-01T01:04:09.952Z,102312.45
2022-12-01T01:06:38.613Z,102318.00
2022-12-01T01:09:07.227Z,102309.28
2022-12-01T01:11:36.383Z,102310.67
2022-12-01T01:14:05.982Z,102303.15
2022-12-01T01:16:35.322Z,102299.19
2022-12-01T01:19:04.092Z,102303.63
2022-12-01T01:21:32.886Z,102305.52
2022-12-01T01:24:01.730Z,102313.06
2022-12-01T01:26:32.150Z,102314.78
2022-12-01T01:29:04.139Z,102314.77
2022-12-01T01:31:33.005Z,102312.20
2022-12-01T01:34:01.935Z,102306.75
2022-12-01T01:36:30.949Z,102306.23
2022-12-01T01:39:00.963Z,102307.24
2022-12-01T01:41:30.061Z,102308.31
2022-12-01T01:44:03.456Z,102308.98
2022-12-01T01:46:35.039Z,102305.25
2022-12-01T01:49:11.595Z,102306.27
2022-12-01T01:51:50.646Z,102311.36
2022-12-01T01:54:26.840Z,102310.15
2022-12-01T01:56:57.716Z,102310.74
2022-12-01T01:59:37.681Z,102313.39
2022-12-01T02:02:09.318Z,102317.16
2022-12-01T02:04:47.842Z,102312.21
2022-12-01T02:07:19.626Z,102305.11
2022-12-01T02:09:48.544Z,102303.54
2022-12-01T02:12:56.931Z,102294.89
2022-12-01T02:15:47.087Z,102290.11
2022-12-01T02:18:27.118Z,102300.13
2022-12-01T02:21:33.928Z,102299.57
2022-12-01T02:25:15.136Z,102306.76
2022-12-01T02:28:06.567Z,102299.38
2022-12-01T02:31:15.240Z,102293.22
2022-12-01T02:33:58.927Z,102291.98
2022-12-01T02:36:52.919Z,102292.33
2022-12-01T02:39:35.133Z,102295.60
2022-12-01T02:42:37.261Z,102294.95
2022-12-01T02:45:14.252Z,102297.52
2022-12-01T02:47:45.108Z,102306.41
2022-12-01T02:50:13.993Z,102311.48
2022-12-01T02:52:43.271Z,102298.13
2022-12-01T02:55:13.711Z,102283.39
2022-12-01T02:57:42.363Z,102276.92
2022-12-01T03:00:13.764Z,102285.02
2022-12-01T03:03:06.527Z,102284.98
2022-12-01T03:05:55.323Z,102284.10
2022-12-01T03:08:49.694Z,102285.52
2022-12-01T03:11:27.407Z,102287.23
2022-12-01T03:14:29.447Z,102286.00
2022-12-01T03:17:05.043Z,102291.39
2022-12-01T03:19:46.206Z,102290.33
2022-12-01T03:22:32.138Z,102284.52
2022-12-01T03:25:03.982Z,102282.92
2022-12-01T03:27:37.933Z,102280.84
2022-12-01T03:30:10.992Z,102285.30
2022-12-01T03:33:04.822Z,102291.21
2022-12-01T03:35:42.101Z,102290.81
2022-12-01T03:38:22.040Z,102291.87
2022-12-01T03:40:56.998Z,102295.88
2022-12-01T03:43:33.261Z,102299.50
2022-12-01T03:46:20.451Z,102296.44
2022-12-01T03:48:50.893Z,102288.13
2022-12-01T03:51:47.192Z,102298.79
2022-12-01T03:54:45.461Z,102290.73
2022-12-01T03:57:24.035Z,102288.00
2022-12-01T03:59:53.976Z,102291.46
2022-12-01T04:02:25.744Z,102295.58
2022-12-01T04:04:54.550Z,102299.81
2022-12-01T04:07:23.652Z,102303.26
2022-12-01T04:09:52.379Z,102301.04
2022-12-01T04:12:29.898Z,102297.92
2022-12-01T04:15:04.205Z,102299.44
2022-12-01T04:17:32.776Z,102297.55
2022-12-01T04:20:01.560Z,102303.34
2022-12-01T04:22:30.494Z,102296.55
2022-12-01T04:24:59.212Z,102295.88
2022-12-01T04:27:29.416Z,102295.88
2022-12-01T04:29:58.064Z,102295.23
2022-12-01T04:32:26.862Z,102294.56
2022-12-01T04:34:55.498Z,102300.02
2022-12-01T04:37:24.143Z,102298.64
2022-12-01T04:39:52.870Z,102297.23
2022-12-01T04:42:21.513Z,102296.56
2022-12-01T04:44:50.158Z,102294.66
2022-12-01T04:47:18.820Z,102298.88
2022-12-01T04:49:47.864Z,102303.20
2022-12-01T04:52:16.663Z,102302.70
2022-12-01T04:54:45.327Z,102302.22
2022-12-01T04:57:14.063Z,102300.67
2022-12-01T04:59:42.634Z,102305.16
2022-12-01T05:02:11.380Z,102305.36
2022-12-01T05:04:41.803Z,102304.02
2022-12-01T05:07:10.543Z,102306.40
2022-12-01T05:09:39.362Z,102310.34
2022-12-01T05:12:08.085Z,102312.74
2022-12-01T05:14:36.701Z,102307.95
2022-12-01T05:17:05.313Z,102305.04
2022-12-01T05:20:26.616Z,102299.22
2022-12-01T05:23:07.128Z,102305.56
2022-12-01T05:25:37.751Z,102312.59
2022-12-01T05:28:06.885Z,102310.88
2022-12-01T05:30:35.484Z,102320.64
2022-12-01T05:33:04.293Z,102322.70
2022-12-01T05:35:36.053Z,102324.58
2022-12-01T05:38:08.076Z,102326.80
2022-12-01T05:40:38.141Z,102329.54
2022-12-01T05:43:07.566Z,102337.75
2022-12-01T05:45:36.629Z,102339.98
2022-12-01T05:48:21.708Z,102339.81
2022-12-01T05:50:50.693Z,102339.30
2022-12-01T05:53:19.831Z,102339.46
2022-12-01T05:55:55.336Z,102342.71
2022-12-01T05:58:24.008Z,102347.52
2022-12-01T06:00:52.926Z,102348.54
2022-12-01T06:03:21.661Z,102349.55
2022-12-01T06:05:51.327Z,102351.44
2022-12-01T06:08:20.115Z,102351.79
2022-12-01T06:10:48.948Z,102351.79
2022-12-01T06:13:17.799Z,102353.84
2022-12-01T06:15:46.493Z,102356.07
2022-12-01T06:18:15.057Z,102358.13
2022-12-01T06:20:43.851Z,102364.80
2022-12-01T06:23:12.479Z,102355.03
2022-12-01T06:25:41.417Z,102346.48
2022-12-01T06:28:10.238Z,102349.39
2022-12-01T06:30:39.111Z,102350.94
2022-12-01T06:33:08.366Z,102354.52
2022-12-01T06:35:37.640Z,102353.84
2022-12-01T06:38:06.527Z,102347.67
2022-12-01T06:40:35.293Z,102345.12
2022-12-01T06:43:04.129Z,102343.73
2022-12-01T06:45:32.790Z,102334.85
2022-12-01T06:48:01.406Z,102334.33
2022-12-01T06:50:30.126Z,102331.60
2022-12-01T06:52:59.462Z,102334.50
2022-12-01T06:55:28.151Z,102337.92
2022-12-01T06:58:01.248Z,102338.43
2022-12-01T07:00:30.185Z,102340.65
2022-12-01T07:02:58.952Z,102341.52
2022-12-01T07:05:27.722Z,102336.38
2022-12-01T07:07:59.492Z,102342.72
2022-12-01T07:10:28.881Z,102347.52
2022-12-01T07:12:57.611Z,102349.23
2022-12-01T07:15:26.314Z,102356.06
2022-12-01T07:17:55.064Z,102357.25
2022-12-01T07:20:23.804Z,102357.95
2022-12-01T07:22:54.641Z,102353.15
2022-12-01T07:25:24.103Z,102350.92
2022-12-01T07:27:54.860Z,102349.90
2022-12-01T07:30:28.223Z,102346.65
2022-12-01T07:32:57.276Z,102346.65
2022-12-01T07:35:26.310Z,102344.95
2022-12-01T07:37:58.115Z,102344.08
2022-12-01T07:40:26.845Z,102346.31
2022-12-01T07:42:55.566Z,102339.64
2022-12-01T07:45:24.907Z,102330.73
2022-12-01T07:47:54.479Z,102330.39
2022-12-01T07:50:23.300Z,102330.05
2022-12-01T07:52:52.263Z,102326.29
2022-12-01T07:55:21.040Z,102329.37
2022-12-01T07:57:49.910Z,102334.85
2022-12-01T08:00:19.030Z,102341.52
2022-12-01T08:02:50.731Z,102345.11
2022-12-01T08:05:19.517Z,102351.10
2022-12-01T08:07:48.412Z,102348.36
2022-12-01T08:10:17.260Z,102351.96
2022-12-01T08:12:48.979Z,102352.98
2022-12-01T08:15:19.244Z,102344.77
2022-12-01T08:17:47.963Z,102333.30
2022-12-01T08:20:22.345Z,102329.02
2022-12-01T08:22:52.668Z,102330.22
2022-12-01T08:25:21.316Z,102325.95
2022-12-01T08:27:49.997Z,102330.40
2022-12-01T08:30:18.876Z,102325.09
2022-12-01T08:32:47.787Z,102326.63
2022-12-01T08:35:16.635Z,102323.20
2022-12-01T08:37:45.728Z,102314.99
2022-12-01T08:40:14.760Z,102309.34
2022-12-01T08:43:49.486Z,102307.64
2022-12-01T08:46:15.243Z,102302.16
2022-12-01T08:48:44.417Z,102305.74
2022-12-01T08:51:16.704Z,102309.35
2022-12-01T08:53:48.921Z,102307.11
2022-12-01T08:56:20.965Z,102305.56
2022-12-01T08:58:51.272Z,102308.33
2022-12-01T09:01:20.972Z,102307.11
2022-12-01T09:04:05.435Z,102308.48
2022-12-01T09:06:46.182Z,102312.91
2022-12-01T09:09:20.297Z,102313.08
2022-12-01T09:11:50.154Z,102307.77
2022-12-01T09:14:20.156Z,102306.39
2022-12-01T09:16:50.529Z,102304.84
2022-12-01T09:19:24.682Z,102298.52
2022-12-01T09:21:53.841Z,102298.02
2022-12-01T09:24:23.166Z,102285.39
2022-12-01T09:26:56.487Z,102281.26
2022-12-01T09:29:25.948Z,102282.11
2022-12-01T09:31:58.956Z,102286.20
2022-12-01T09:34:29.209Z,102283.81
2022-12-01T09:36:58.723Z,102289.30
2022-12-01T09:39:28.129Z,102290.82
2022-12-01T09:42:13.123Z,102290.66
2022-12-01T09:44:53.737Z,102291.52
2022-12-01T09:47:37.309Z,102291.88
2022-12-01T09:53:20.315Z,102284.51
2022-12-01T09:55:50.510Z,102284.52
2022-12-01T09:58:25.831Z,102281.25
2022-12-01T10:00:55.215Z,102278.34
2022-12-01T10:03:46.518Z,102269.06
2022-12-01T10:06:29.192Z,102267.73
2022-12-01T10:09:34.997Z,102262.61
2022-12-01T10:12:27.986Z,102264.50
2022-12-01T10:15:18.551Z,102258.98
2022-12-01T10:18:32.453Z,102262.20
2022-12-01T10:21:31.100Z,102256.21
2022-12-01T10:24:31.391Z,102254.82
2022-12-01T10:27:26.359Z,102253.39
2022-12-01T10:30:18.816Z,102251.77
2022-12-01T10:32:55.378Z,102251.09
2022-12-01T10:35:29.370Z,102247.14
2022-12-01T10:38:02.758Z,102247.99
2022-12-01T10:41:04.689Z,102246.42
2022-12-01T10:43:41.461Z,102243.38
2022-12-01T10:46:43.858Z,102238.94
2022-12-01T10:49:15.536Z,102233.27
2022-12-01T10:51:53.181Z,102233.24
2022-12-01T10:54:33.665Z,102235.83
2022-12-01T10:57:04.079Z,102234.59
2022-12-01T10:59:38.531Z,102237.34
2022-12-01T11:02:20.986Z,102235.66
2022-12-01T11:04:58.014Z,102234.48
2022-12-01T11:07:44.524Z,102233.64
2022-12-01T11:10:24.459Z,102227.84
2022-12-01T11:13:35.753Z,102228.73
2022-12-01T11:16:07.342Z,102227.02
2022-12-01T11:18:38.960Z,102224.95
2022-12-01T11:21:12.955Z,102225.11
2022-12-01T11:23:53.772Z,102221.85
2022-12-01T11:26:25.364Z,102215.49
2022-12-01T11:29:33.308Z,102216.86
2022-12-01T11:32:25.999Z,102215.30
2022-12-01T11:35:03.239Z,102214.79
2022-12-01T11:37:39.612Z,102219.37
2022-12-01T11:40:37.230Z,102214.95
2022-12-01T11:43:08.338Z,102209.84
2022-12-01T11:45:45.820Z,102208.63
2022-12-01T11:48:17.980Z,102198.01
2022-12-01T11:51:11.472Z,102198.38
2022-12-01T11:53:45.543Z,102200.43
2022-12-01T11:56:28.878Z,102193.89
2022-12-01T11:59:05.822Z,102195.77
2022-12-01T12:02:21.152Z,102194.90
2022-12-01T12:05:30.069Z,102194.77
2022-12-01T12:08:13.690Z,102192.16
2022-12-01T12:11:21.498Z,102194.23
2022-12-01T12:13:55.930Z,102196.92
2022-12-01T12:17:04.820Z,102190.42
2022-12-01T12:22:43.280Z,102195.67
2022-12-01T12:25:21.080Z,102195.55
2022-12-01T12:28:07.092Z,102198.81
2022-12-01T12:30:49.565Z,102192.69
2022-12-01T12:33:42.309Z,102189.27
2022-12-01T12:36:55.993Z,102194.20
2022-12-01T12:39:54.104Z,102194.23
2022-12-01T12:43:09.239Z,102198.52
2022-12-01T12:46:36.659Z,102198.70
2022-12-01T12:49:27.283Z,102198.36
2022-12-01T12:52:08.965Z,102196.80
2022-12-01T12:55:04.190Z,102190.66
2022-12-01T12:57:39.448Z,102196.09
2022-12-01T13:00:21.228Z,102192.36
2022-12-01T13:03:15.310Z,102192.91
2022-12-01T13:06:02.779Z,102190.15
2022-12-01T13:08:45.622Z,102185.84
2022-12-01T13:11:27.394Z,102190.12
2022-12-01T13:14:33.321Z,102195.97
2022-12-01T13:17:31.239Z,102196.66
2022-12-01T13:19:59.874Z,102194.25
2022-12-01T13:22:35.334Z,102194.96
2022-12-01T13:25:05.327Z,102191.19
2022-12-01T13:27:42.888Z,102193.58
2022-12-01T13:30:24.912Z,102188.82
2022-12-01T13:33:05.797Z,102195.30
2022-12-01T13:35:38.712Z,102194.11
2022-12-01T13:38:37.746Z,102191.85
2022-12-01T13:41:18.454Z,102187.75
2022-12-01T13:44:39.705Z,102189.99
2022-12-01T13:47:11.422Z,102188.46
2022-12-01T13:49:46.635Z,102182.00
2022-12-01T13:52:31.584Z,102187.45
2022-12-01T13:55:12.164Z,102180.89
2022-12-01T13:58:13.445Z,102179.40
2022-12-01T14:00:43.258Z,102175.45
2022-12-01T14:03:19.473Z,102175.27
2022-12-01T14:05:58.923Z,102172.02
2022-12-01T14:08:45.271Z,102171.31
2022-12-01T14:11:25.083Z,102173.21
2022-12-01T14:14:00.977Z,102177.00
2022-12-01T14:16:57.243Z,102169.44
2022-12-01T14:19:45.322Z,102168.06
2022-12-01T14:22:40.804Z,102168.60
2022-12-01T14:25:21.681Z,102166.84
2022-12-01T14:27:54.564Z,102167.55
2022-12-01T14:30:45.943Z,102161.21
2022-12-01T14:33:39.523Z,102159.35
2022-12-01T14:36:37.764Z,102156.99
2022-12-01T14:39:23.711Z,102154.60
2022-12-01T14:42:00.908Z,102154.78
2022-12-01T14:44:36.028Z,102158.20
2022-12-01T14:47:13.571Z,102162.13
2022-12-01T14:50:15.317Z,102162.98
2022-12-01T14:52:51.126Z,102164.73
2022-12-01T14:55:39.220Z,102160.60
2022-12-01T14:58:18.627Z,102160.60
2022-12-01T15:01:14.468Z,102166.66
2022-12-01T15:03:49.141Z,102167.65
2022-12-01T15:06:20.821Z,102171.09
2022-12-01T15:14:47.223Z,102176.36
2022-12-01T15:17:37.286Z,102174.66
2022-12-01T15:20:37.143Z,102175.67
2022-12-01T15:23:15.308Z,102175.83
2022-12-01T15:25:46.780Z,102177.02
2022-12-01T15:28:18.206Z,102177.69
2022-12-01T15:30:55.231Z,102172.55
2022-12-01T15:34:10.656Z,102150.69
2022-12-01T15:36:49.038Z,102178.86
2022-12-01T15:43:38.464Z,102180.97
2022-12-01T15:46:31.629Z,102179.73
2022-12-01T15:49:20.177Z,102166.26
2022-12-01T15:52:16.630Z,102185.08
2022-12-01T15:59:04.146Z,102187.77
2022-12-01T16:12:28.585Z,102192.36
2022-12-01T16:15:01.253Z,102141.93
2022-12-01T16:21:17.955Z,102187.52
2022-12-01T16:23:48.389Z,102188.94
2022-12-01T16:26:19.915Z,102188.08
2022-12-01T16:28:50.703Z,102185.33
2022-12-01T16:31:20.428Z,102188.37
2022-12-01T16:34:13.788Z,102142.66
2022-12-01T16:36:48.605Z,102180.02
2022-12-01T16:39:18.126Z,102179.19
2022-12-01T16:41:48.282Z,102174.42
2022-12-01T16:44:32.895Z,102179.74
2022-12-01T16:47:02.136Z,102182.34
2022-12-01T16:50:04.276Z,102181.83
2022-12-01T16:52:48.296Z,102188.16
2022-12-01T16:55:43.781Z,102188.30
2022-12-01T16:58:12.921Z,102190.02
2022-12-01T17:00:42.090Z,102197.02
2022-12-01T17:04:49.964Z,102196.15
2022-12-01T17:07:18.681Z,102196.52
2022-12-01T17:10:12.028Z,102196.32
2022-12-01T17:13:24.172Z,102199.40
2022-12-01T17:15:55.532Z,102192.36
2022-12-01T17:18:25.218Z,102162.82
2022-12-01T17:21:09.947Z,102187.58
2022-12-01T17:23:47.274Z,102189.64
2022-12-01T17:26:19.179Z,102188.10
2022-12-01T17:28:48.513Z,102191.17
2022-12-01T17:31:17.314Z,102198.52
2022-12-01T17:33:46.652Z,102197.36
2022-12-01T17:36:16.140Z,102198.73
2022-12-01T17:38:48.200Z,102196.86
2022-12-01T17:41:25.749Z,102167.27
2022-12-01T17:43:54.613Z,102195.80
2022-12-01T17:46:23.574Z,102184.52
2022-12-01T17:48:52.316Z,102195.64
2022-12-01T17:51:21.085Z,102196.34
2022-12-01T17:53:49.824Z,102197.35
2022-12-01T17:56:18.720Z,102197.85
2022-12-01T17:58:49.614Z,102196.82
2022-12-01T18:01:24.124Z,102195.63
2022-12-01T18:03:58.609Z,102196.83
2022-12-01T18:06:27.953Z,102191.88
2022-12-01T18:08:58.510Z,102193.23
2022-12-01T18:11:28.066Z,102191.54
2022-12-01T18:13:56.747Z,102185.86
2022-12-01T18:16:30.019Z,102192.03
2022-12-01T18:19:02.338Z,102183.81
2022-12-01T18:21:31.043Z,102182.63
2022-12-01T18:24:04.154Z,102179.58
2022-12-01T18:26:33.806Z,102177.52
2022-12-01T18:29:11.599Z,102175.77
2022-12-01T18:31:42.373Z,102174.75
2022-12-01T18:34:12.625Z,102173.54
2022-12-01T18:36:41.995Z,102172.35
2022-12-01T18:39:12.254Z,102174.06
2022-12-01T18:41:41.138Z,102173.73
2022-12-01T18:44:10.102Z,102176.12
2022-12-01T18:46:39.598Z,102172.52
2022-12-01T18:49:09.421Z,102171.80
2022-12-01T18:51:39.449Z,102173.05
2022-12-01T18:54:12.619Z,102175.77
2022-12-01T18:56:41.711Z,102176.29
2022-12-01T18:59:12.913Z,102176.11
2022-12-01T19:01:44.015Z,102173.19
2022-12-01T19:04:15.925Z,102177.80
2022-12-01T19:06:46.055Z,102175.44
2022-12-01T19:09:16.318Z,102172.02
2022-12-01T19:11:45.594Z,102173.52
2022-12-01T19:14:20.015Z,102172.88
2022-12-01T19:16:49.336Z,102174.76
2022-12-01T19:19:18.208Z,102174.94
2022-12-01T19:21:47.157Z,102176.29
2022-12-01T19:24:16.277Z,102178.33
2022-12-01T19:26:45.039Z,102177.48
2022-12-01T19:29:13.876Z,102176.81
2022-12-01T19:31:42.634Z,102180.40
2022-12-01T19:34:11.389Z,102176.13
2022-12-01T19:36:40.628Z,102181.41
2022-12-01T19:39:09.417Z,102180.23
2022-12-01T19:41:38.856Z,102177.83
2022-12-01T19:44:07.799Z,102181.06
2022-12-01T19:46:36.498Z,102181.41
2022-12-01T19:49:07.249Z,102175.61
2022-12-01T19:51:39.499Z,102175.73
2022-12-01T19:54:15.723Z,102176.92
2022-12-01T19:56:45.753Z,102177.61
2022-12-01T19:59:15.102Z,102178.30
2022-12-01T20:01:43.982Z,102174.52
2022-12-01T20:04:12.773Z,102175.73
2022-12-01T20:06:41.520Z,102174.37
2022-12-01T20:09:10.774Z,102177.45
2022-12-01T20:11:39.424Z,102178.48
2022-12-01T20:14:08.376Z,102174.89
2022-12-01T20:16:39.587Z,102173.17
2022-12-01T20:19:08.703Z,102167.86
2022-12-01T20:21:42.684Z,102168.06
2022-12-01T20:24:15.622Z,102171.83
2022-12-01T20:26:53.137Z,102173.41
2022-12-01T20:29:28.822Z,102168.27
2022-12-01T20:32:00.332Z,102167.41
2022-12-01T20:34:35.669Z,102166.55
2022-12-01T20:37:04.939Z,102164.98
2022-12-01T20:39:36.041Z,102166.69
2022-12-01T20:42:06.265Z,102157.63
2022-12-01T20:44:35.775Z,102166.16
2022-12-01T20:47:04.886Z,102163.41
2022-12-01T20:49:33.573Z,102166.98
2022-12-01T20:52:02.391Z,102162.25
2022-12-01T20:54:31.636Z,102160.85
2022-12-01T20:57:00.351Z,102164.27
2022-12-01T20:59:29.715Z,102164.98
2022-12-01T21:01:58.442Z,102164.63
2022-12-01T21:04:27.169Z,102162.23
2022-12-01T21:06:58.180Z,102164.81
2022-12-01T21:09:29.763Z,102151.50
2022-12-01T21:12:18.176Z,102158.69
2022-12-01T21:15:13.637Z,102154.91
2022-12-01T21:17:53.320Z,102151.66
2022-12-01T21:20:30.135Z,102148.25
2022-12-01T21:23:28.915Z,102149.12
2022-12-01T21:25:57.922Z,102148.59
2022-12-01T21:28:27.484Z,102144.99
2022-12-01T21:31:10.808Z,102144.83
2022-12-01T21:33:39.888Z,102143.11
2022-12-01T21:36:20.868Z,102139.17
2022-12-01T21:39:05.736Z,102134.90
2022-12-01T21:41:34.412Z,102135.42
2022-12-01T21:44:13.855Z,102126.67
2022-12-01T21:46:42.930Z,102124.98
2022-12-01T21:49:25.449Z,102120.70
2022-12-01T21:51:54.253Z,102122.41
2022-12-01T21:54:23.482Z,102120.89
2022-12-01T21:56:58.890Z,102119.51
2022-12-01T21:59:28.311Z,102112.82
2022-12-01T22:01:58.114Z,102115.02
2022-12-01T22:04:31.638Z,102120.34
2022-12-01T22:07:00.277Z,102121.52
2022-12-01T22:09:36.505Z,102117.77
2022-12-01T22:12:29.277Z,102115.69
2022-12-01T22:15:02.280Z,102117.58
2022-12-01T22:17:30.882Z,102117.55
2022-12-01T22:20:17.979Z,102117.73
2022-12-01T22:22:46.631Z,102111.39
2022-12-01T22:25:26.731Z,102110.05
2022-12-01T22:27:56.337Z,102109.54
2022-12-01T22:30:25.079Z,102104.73
2022-12-01T22:33:05.511Z,102105.27
2022-12-01T22:35:43.631Z,102100.13
2022-12-01T22:38:38.034Z,102104.91
2022-12-01T22:41:14.844Z,102103.55
2022-12-01T22:44:01.076Z,102101.14
2022-12-01T22:46:33.497Z,102100.10
2022-12-01T22:49:23.119Z,102096.34
2022-12-01T22:51:53.539Z,102095.48
2022-12-01T22:54:30.715Z,102090.54
2022-12-01T22:57:24.533Z,102097.23
2022-12-01T22:59:54.568Z,102092.44
2022-12-01T23:02:35.323Z,102092.25
2022-12-01T23:05:29.716Z,102094.66
2022-12-01T23:07:58.886Z,102096.89
2022-12-01T23:10:35.182Z,102098.11
2022-12-01T23:13:24.745Z,102103.08
2022-12-01T23:15:54.365Z,102098.92
2022-12-01T23:18:32.230Z,102097.54
2022-12-01T23:21:02.631Z,102100.08
2022-12-01T23:23:35.233Z,102098.01
2022-12-01T23:26:08.558Z,102095.13
2022-12-01T23:28:39.501Z,102094.45
2022-12-01T23:31:09.716Z,102092.05
2022-12-01T23:33:38.781Z,102092.91
2022-12-01T23:36:19.170Z,102093.95
2022-12-01T23:38:52.665Z,102093.77
2022-12-01T23:41:42.475Z,102091.00
2022-12-01T23:44:39.997Z,102086.05
2022-12-01T23:47:20.354Z,102089.98
2022-12-01T23:49:59.392Z,102094.09
2022-12-01T23:52:37.301Z,102100.80
2022-12-01T23:55:22.650Z,102101.81
2022-12-01T23:57:52.349Z,102103.34
